Murphy, Argentina
Current Conditions -  °F | °C
As of 1:00 PM on Saturday 20 Dec 2014 (Local Time) from SAAR Reporting Station
Thunderstorm Thunderstorm  
Wind Chill: 20°   Ceiling: 1500
Heat Index: 20°   Visibility: 6mi
Dew Point: 19°   Wind: 0mph
Humidity: 94%   Direction: NA
Pressure: 29.56"   Gusts: NA
Location:  33.63°S, 61.87°W
Report Text: SAAR 201600Z 00000KT 9999 TS BKN015FEW050CB 20/19 Q1001
Loading
Personal Weather Stations






























Interactive Weather Map New forecast layout! Learn more

10-Day Weather Forecast

Advertisements
Track Severe Weather on mobile